QTR324 OTHH-OPKC
Flight info
| Callsign | QTR324 |
|---|---|
| Flight time | 2h 24m |
| Altitude | 28000 |
| Route | DATRI L564 BAT/N0524F290 L564 MIGMA/N0491F390 DCT ALROK/N0486F410 DCT DEBIN DCT MIDGU M440 TULBU G652 SODEB G216 LAKIV |
| Aircraft | A359/H-SDE2E3GHIJ3J4J5LM1ORWXY/LB1D1 |
Departure
| Time | 2026-05-07 23:30 |
|---|---|
| Airport | Hamad International Airport (OTHH) |
Arrival
| Time | 2026-05-08 01:54 |
|---|---|
| Airport | Jinnah International Airport (OPKC) |
| Time | Latitude | Longitude | Altitude | Speed | Heading |
|---|---|---|---|---|---|
| 2026-05-07 23:06 | 25.26459 | 51.61111 | 29 ft | 0 kts | 68° |
| 2026-05-07 23:19 | 25.26456 | 51.61102 | 28 ft | 3 kts | 68° |
| 2026-05-07 23:19 | 25.26449 | 51.61081 | 36 ft | 3 kts | 68° |
| 2026-05-07 23:19 | 25.26441 | 51.61061 | 44 ft | 3 kts | 68° |
| 2026-05-07 23:19 | 25.26434 | 51.61042 | 27 ft | 3 kts | 70° |
| 2026-05-07 23:20 | 25.26430 | 51.61026 | 26 ft | 3 kts | 97° |
| 2026-05-07 23:20 | 25.26430 | 51.61015 | 26 ft | 3 kts | 135° |
| 2026-05-07 23:20 | 25.26442 | 51.61006 | 25 ft | 3 kts | 162° |
| 2026-05-07 23:20 | 25.26461 | 51.60999 | 27 ft | 3 kts | 161° |
| 2026-05-07 23:21 | 25.26471 | 51.60995 | 25 ft | 0 kts | 158° |
| 2026-05-07 23:24 | 25.26471 | 51.60996 | 28 ft | 1 kts | 158° |
| 2026-05-07 23:24 | 25.26446 | 51.61007 | 28 ft | 6 kts | 158° |
| 2026-05-07 23:24 | 25.26401 | 51.61026 | 28 ft | 8 kts | 158° |
| 2026-05-07 23:24 | 25.26340 | 51.61053 | 28 ft | 11 kts | 158° |
| 2026-05-07 23:25 | 25.26263 | 51.61077 | 28 ft | 12 kts | 180° |
| 2026-05-07 23:25 | 25.26219 | 51.61044 | 28 ft | 12 kts | 237° |
| 2026-05-07 23:25 | 25.26184 | 51.60951 | 28 ft | 14 kts | 248° |
| 2026-05-07 23:25 | 25.26145 | 51.60845 | 28 ft | 16 kts | 248° |
| 2026-05-07 23:26 | 25.26105 | 51.60733 | 28 ft | 13 kts | 248° |
| 2026-05-07 23:26 | 25.26100 | 51.60718 | 28 ft | 0 kts | 248° |
| 2026-05-07 23:26 | 25.26099 | 51.60717 | 28 ft | 2 kts | 248° |
| 2026-05-07 23:26 | 25.26081 | 51.60667 | 28 ft | 10 kts | 248° |
| 2026-05-07 23:27 | 25.25981 | 51.60561 | 27 ft | 12 kts | 167° |
| 2026-05-07 23:27 | 25.25893 | 51.60598 | 27 ft | 15 kts | 157° |
| 2026-05-07 23:27 | 25.25790 | 51.60645 | 27 ft | 17 kts | 158° |
| 2026-05-07 23:28 | 25.25684 | 51.60692 | 27 ft | 15 kts | 158° |
| 2026-05-07 23:28 | 25.25600 | 51.60679 | 30 ft | 12 kts | 233° |
| 2026-05-07 23:28 | 25.25585 | 51.60574 | 23 ft | 16 kts | 287° |
| 2026-05-07 23:28 | 25.25669 | 51.60494 | 22 ft | 17 kts | 336° |
| 2026-05-07 23:29 | 25.25782 | 51.60443 | 25 ft | 24 kts | 338° |
| 2026-05-07 23:29 | 25.26136 | 51.60288 | 30 ft | 88 kts | 338° |
| 2026-05-07 23:29 | 25.26903 | 51.59950 | 21 ft | 146 kts | 338° |
| 2026-05-07 23:29 | 25.27997 | 51.59465 | 123 ft | 187 kts | 338° |
| 2026-05-07 23:30 | 25.29176 | 51.58930 | 905 ft | 182 kts | 338° |
| 2026-05-07 23:30 | 25.30353 | 51.58398 | 1660 ft | 185 kts | 339° |
| 2026-05-07 23:30 | 25.31568 | 51.57853 | 2222 ft | 190 kts | 339° |
| 2026-05-07 23:30 | 25.32805 | 51.57311 | 2673 ft | 192 kts | 340° |
| 2026-05-07 23:31 | 25.34057 | 51.56764 | 3114 ft | 195 kts | 339° |
| 2026-05-07 23:31 | 25.35322 | 51.56208 | 3570 ft | 196 kts | 339° |
| 2026-05-07 23:31 | 25.36599 | 51.55645 | 3975 ft | 200 kts | 339° |
| 2026-05-07 23:31 | 25.37904 | 51.55067 | 4411 ft | 203 kts | 339° |
| 2026-05-07 23:32 | 25.39230 | 51.54481 | 4859 ft | 206 kts | 338° |
| 2026-05-07 23:32 | 25.40571 | 51.53886 | 5311 ft | 208 kts | 339° |
| 2026-05-07 23:32 | 25.41925 | 51.53289 | 5755 ft | 211 kts | 339° |
| 2026-05-07 23:32 | 25.43284 | 51.52692 | 6207 ft | 213 kts | 339° |
| 2026-05-07 23:33 | 25.44669 | 51.52077 | 6643 ft | 215 kts | 339° |
| 2026-05-07 23:33 | 25.46064 | 51.51449 | 7068 ft | 218 kts | 337° |
| 2026-05-07 23:33 | 25.47351 | 51.50562 | 7527 ft | 220 kts | 317° |
| 2026-05-07 23:33 | 25.48216 | 51.49180 | 7966 ft | 221 kts | 291° |
| 2026-05-07 23:34 | 25.48474 | 51.47505 | 8433 ft | 222 kts | 271° |
| 2026-05-07 23:34 | 25.48422 | 51.45790 | 8897 ft | 224 kts | 266° |
| 2026-05-07 23:34 | 25.48318 | 51.44066 | 9352 ft | 225 kts | 266° |
| 2026-05-07 23:34 | 25.48212 | 51.42327 | 9832 ft | 227 kts | 266° |
| 2026-05-07 23:35 | 25.48116 | 51.40576 | 10279 ft | 229 kts | 266° |
| 2026-05-07 23:35 | 25.48028 | 51.38815 | 10706 ft | 230 kts | 266° |
| 2026-05-07 23:35 | 25.47944 | 51.37040 | 11167 ft | 237 kts | 266° |
| 2026-05-07 23:35 | 25.47858 | 51.35177 | 11619 ft | 244 kts | 266° |
| 2026-05-07 23:36 | 25.47774 | 51.33300 | 12074 ft | 245 kts | 267° |
| 2026-05-07 23:36 | 25.47690 | 51.31411 | 12544 ft | 247 kts | 267° |
| 2026-05-07 23:36 | 25.47637 | 51.29506 | 13022 ft | 248 kts | 269° |
| 2026-05-07 23:36 | 25.47667 | 51.27596 | 13508 ft | 248 kts | 270° |
| 2026-05-07 23:37 | 25.47274 | 51.25765 | 13947 ft | 245 kts | 237° |
| 2026-05-07 23:37 | 25.46057 | 51.24553 | 14366 ft | 239 kts | 201° |
| 2026-05-07 23:37 | 25.44432 | 51.24357 | 14827 ft | 232 kts | 171° |
| 2026-05-07 23:37 | 25.42851 | 51.24670 | 15276 ft | 230 kts | 168° |
| 2026-05-07 23:38 | 25.41278 | 51.24959 | 15732 ft | 238 kts | 171° |
| 2026-05-07 23:38 | 25.39577 | 51.25164 | 16196 ft | 254 kts | 175° |
| 2026-05-07 23:38 | 25.37764 | 51.25292 | 16735 ft | 266 kts | 176° |
| 2026-05-07 23:38 | 25.35880 | 51.25370 | 17355 ft | 275 kts | 178° |
| 2026-05-07 23:39 | 25.33937 | 51.25420 | 17998 ft | 283 kts | 179° |
| 2026-05-07 23:39 | 25.31943 | 51.25457 | 18567 ft | 289 kts | 179° |
| 2026-05-07 23:39 | 25.29918 | 51.25489 | 19137 ft | 294 kts | 179° |
| 2026-05-07 23:39 | 25.27860 | 51.25578 | 19712 ft | 298 kts | 175° |
| 2026-05-07 23:40 | 25.25814 | 51.26030 | 20305 ft | 302 kts | 165° |
| 2026-05-07 23:40 | 25.23817 | 51.26796 | 20902 ft | 305 kts | 162° |
| 2026-05-07 23:40 | 25.21792 | 51.27492 | 21520 ft | 304 kts | 168° |
| 2026-05-07 23:40 | 25.19728 | 51.27999 | 22150 ft | 304 kts | 171° |
| 2026-05-07 23:41 | 25.17655 | 51.28435 | 22780 ft | 302 kts | 172° |
| 2026-05-07 23:41 | 25.15589 | 51.28824 | 23434 ft | 300 kts | 173° |
| 2026-05-07 23:41 | 25.13540 | 51.29185 | 23981 ft | 296 kts | 174° |
| 2026-05-07 23:41 | 25.11519 | 51.29530 | 24534 ft | 291 kts | 174° |
| 2026-05-07 23:42 | 25.09558 | 51.29865 | 25098 ft | 286 kts | 175° |
| 2026-05-07 23:42 | 25.07618 | 51.30197 | 25669 ft | 279 kts | 175° |
| 2026-05-07 23:42 | 25.05702 | 51.30522 | 26114 ft | 278 kts | 176° |
| 2026-05-07 23:42 | 25.03796 | 51.30842 | 26541 ft | 276 kts | 176° |
| 2026-05-07 23:43 | 25.01907 | 51.31161 | 26956 ft | 274 kts | 176° |
| 2026-05-07 23:43 | 24.99995 | 51.31484 | 27151 ft | 282 kts | 176° |
| 2026-05-07 23:43 | 24.98029 | 51.31816 | 27300 ft | 290 kts | 176° |
| 2026-05-07 23:43 | 24.96003 | 51.32164 | 27442 ft | 299 kts | 176° |
| 2026-05-07 23:44 | 24.93914 | 51.32526 | 27590 ft | 308 kts | 176° |
| 2026-05-07 23:44 | 24.91767 | 51.32901 | 27741 ft | 318 kts | 176° |
| 2026-05-07 23:44 | 24.89559 | 51.33287 | 27811 ft | 331 kts | 176° |
| 2026-05-07 23:44 | 24.87236 | 51.33693 | 27816 ft | 346 kts | 175° |
| 2026-05-07 23:45 | 24.84800 | 51.34118 | 27816 ft | 362 kts | 175° |
| 2026-05-07 23:45 | 24.82259 | 51.34563 | 27818 ft | 378 kts | 175° |
| 2026-05-07 23:45 | 24.79607 | 51.35028 | 27820 ft | 394 kts | 175° |
| 2026-05-07 23:45 | 24.76851 | 51.35512 | 27824 ft | 409 kts | 175° |
| 2026-05-07 23:46 | 24.73984 | 51.36016 | 27821 ft | 424 kts | 174° |
| 2026-05-07 23:46 | 24.71020 | 51.36537 | 27825 ft | 439 kts | 174° |
| 2026-05-07 23:46 | 24.67959 | 51.37072 | 27823 ft | 453 kts | 174° |
| 2026-05-07 23:46 | 24.64805 | 51.37625 | 27824 ft | 466 kts | 174° |
| 2026-05-07 23:47 | 24.61554 | 51.38197 | 27823 ft | 479 kts | 174° |
| 2026-05-07 23:47 | 24.58217 | 51.38783 | 27828 ft | 491 kts | 174° |
| 2026-05-07 23:47 | 24.54808 | 51.39381 | 27827 ft | 502 kts | 174° |
| 2026-05-07 23:47 | 24.51324 | 51.39992 | 27826 ft | 508 kts | 174° |
| 2026-05-07 23:48 | 24.47853 | 51.40604 | 27831 ft | 504 kts | 174° |
| 2026-05-07 23:48 | 24.44390 | 51.41214 | 27832 ft | 502 kts | 174° |
| 2026-05-07 23:48 | 24.40938 | 51.41820 | 27834 ft | 502 kts | 174° |
| 2026-05-07 23:48 | 24.37489 | 51.42423 | 27832 ft | 502 kts | 174° |
| 2026-05-07 23:49 | 24.34037 | 51.43025 | 27829 ft | 502 kts | 174° |
| 2026-05-07 23:49 | 24.30583 | 51.43626 | 27829 ft | 502 kts | 174° |
| 2026-05-07 23:49 | 24.27124 | 51.44228 | 27829 ft | 503 kts | 174° |
| 2026-05-07 23:49 | 24.23665 | 51.44821 | 27845 ft | 503 kts | 175° |
| 2026-05-07 23:50 | 24.20206 | 51.45127 | 28027 ft | 506 kts | 180° |
| 2026-05-07 23:50 | 24.16699 | 51.45236 | 28539 ft | 503 kts | 181° |
| 2026-05-07 23:50 | 24.13198 | 51.45283 | 28786 ft | 501 kts | 182° |
| 2026-05-07 23:50 | 24.09711 | 51.45295 | 28833 ft | 502 kts | 183° |
| 2026-05-07 23:51 | 24.02684 | 51.45282 | 28830 ft | 507 kts | 183° |
| 2026-05-07 23:51 | 23.95619 | 51.45283 | 28831 ft | 507 kts | 182° |
| 2026-05-07 23:52 | 23.88548 | 51.45301 | 28830 ft | 508 kts | 182° |
| 2026-05-07 23:52 | 23.81483 | 51.45327 | 28830 ft | 508 kts | 182° |
| 2026-05-07 23:53 | 23.74450 | 51.45352 | 28830 ft | 508 kts | 182° |
| 2026-05-07 23:53 | 23.67368 | 51.45376 | 28829 ft | 508 kts | 182° |
| 2026-05-07 23:54 | 23.60282 | 51.45400 | 28835 ft | 509 kts | 182° |
| 2026-05-07 23:54 | 23.53198 | 51.45424 | 28833 ft | 509 kts | 182° |
| 2026-05-07 23:55 | 23.46115 | 51.45451 | 28833 ft | 509 kts | 182° |
| 2026-05-07 23:55 | 23.39075 | 51.45549 | 28832 ft | 509 kts | 181° |
| 2026-05-07 23:56 | 23.31985 | 51.45676 | 28832 ft | 509 kts | 181° |
| 2026-05-07 23:56 | 23.24893 | 51.45797 | 28833 ft | 510 kts | 181° |
| 2026-05-07 23:57 | 23.17802 | 51.45911 | 28839 ft | 510 kts | 181° |
| 2026-05-07 23:57 | 23.10690 | 51.46005 | 28836 ft | 510 kts | 181° |
| 2026-05-07 23:58 | 23.03597 | 51.46096 | 28834 ft | 510 kts | 181° |
| 2026-05-07 23:58 | 22.96544 | 51.46191 | 28830 ft | 510 kts | 181° |
| 2026-05-07 23:59 | 22.89467 | 51.46894 | 28831 ft | 514 kts | 169° |
| 2026-05-07 23:59 | 22.82806 | 51.49907 | 29019 ft | 528 kts | 149° |
| 2026-05-08 00:00 | 22.79896 | 51.52382 | 29199 ft | 534 kts | 139° |
| 2026-05-08 00:00 | 22.77348 | 51.55341 | 29361 ft | 537 kts | 133° |
| 2026-05-08 00:00 | 22.74938 | 51.58451 | 29494 ft | 539 kts | 131° |
| 2026-05-08 00:00 | 22.72589 | 51.61624 | 29564 ft | 541 kts | 130° |
| 2026-05-08 00:01 | 22.67913 | 51.68025 | 29697 ft | 542 kts | 130° |
| 2026-05-08 00:01 | 22.63187 | 51.74394 | 29857 ft | 540 kts | 131° |
| 2026-05-08 00:02 | 22.60834 | 51.77527 | 30325 ft | 533 kts | 131° |
| 2026-05-08 00:02 | 22.58526 | 51.80588 | 30690 ft | 530 kts | 131° |
| 2026-05-08 00:02 | 22.56189 | 51.83678 | 30932 ft | 531 kts | 131° |
| 2026-05-08 00:02 | 22.53837 | 51.86782 | 31124 ft | 531 kts | 131° |
| 2026-05-08 00:03 | 22.51495 | 51.89871 | 31273 ft | 532 kts | 131° |
| 2026-05-08 00:03 | 22.49145 | 51.92970 | 31396 ft | 533 kts | 131° |
| 2026-05-08 00:03 | 22.44439 | 51.99174 | 31569 ft | 534 kts | 131° |
| 2026-05-08 00:04 | 22.39721 | 52.05390 | 31668 ft | 535 kts | 131° |
| 2026-05-08 00:04 | 22.35013 | 52.11589 | 31976 ft | 529 kts | 132° |
| 2026-05-08 00:05 | 22.32691 | 52.14646 | 32444 ft | 524 kts | 132° |
| 2026-05-08 00:05 | 22.30381 | 52.17683 | 32816 ft | 521 kts | 132° |
| 2026-05-08 00:05 | 22.28118 | 52.20655 | 33222 ft | 518 kts | 132° |
| 2026-05-08 00:05 | 22.25830 | 52.23658 | 33502 ft | 518 kts | 132° |
| 2026-05-08 00:06 | 22.23537 | 52.26664 | 33712 ft | 519 kts | 132° |
| 2026-05-08 00:06 | 22.21233 | 52.29683 | 33872 ft | 520 kts | 132° |
| 2026-05-08 00:06 | 22.18934 | 52.32694 | 33999 ft | 521 kts | 132° |
| 2026-05-08 00:06 | 22.16630 | 52.35711 | 34101 ft | 521 kts | 132° |
| 2026-05-08 00:07 | 22.14321 | 52.38734 | 34287 ft | 519 kts | 132° |
| 2026-05-08 00:07 | 22.12041 | 52.41719 | 34702 ft | 513 kts | 132° |
| 2026-05-08 00:07 | 22.09778 | 52.44680 | 35134 ft | 508 kts | 132° |
| 2026-05-08 00:07 | 22.07552 | 52.47590 | 35773 ft | 500 kts | 132° |
| 2026-05-08 00:08 | 22.05350 | 52.50468 | 36375 ft | 492 kts | 132° |
| 2026-05-08 00:08 | 22.03189 | 52.53291 | 36946 ft | 486 kts | 132° |
| 2026-05-08 00:08 | 22.01039 | 52.56095 | 37319 ft | 484 kts | 132° |
| 2026-05-08 00:08 | 21.98919 | 52.58857 | 37577 ft | 485 kts | 132° |
| 2026-05-08 00:09 | 21.96769 | 52.61656 | 37873 ft | 483 kts | 132° |
| 2026-05-08 00:09 | 21.94649 | 52.64427 | 38479 ft | 476 kts | 131° |
| 2026-05-08 00:09 | 21.92732 | 52.67317 | 38752 ft | 475 kts | 124° |
| 2026-05-08 00:09 | 21.91179 | 52.70473 | 38808 ft | 479 kts | 116° |
| 2026-05-08 00:10 | 21.89524 | 52.77522 | 38812 ft | 495 kts | 98° |
| 2026-05-08 00:10 | 21.89000 | 52.84998 | 38807 ft | 505 kts | 95° |
| 2026-05-08 00:11 | 21.88652 | 52.92618 | 38807 ft | 513 kts | 95° |
| 2026-05-08 00:11 | 21.88295 | 53.00323 | 38809 ft | 516 kts | 95° |
| 2026-05-08 00:12 | 21.87961 | 53.06735 | 38812 ft | 516 kts | 95° |
| 2026-05-08 00:12 | 21.87453 | 53.15691 | 38812 ft | 516 kts | 95° |
| 2026-05-08 00:13 | 21.87075 | 53.22149 | 38814 ft | 516 kts | 95° |
| 2026-05-08 00:13 | 21.86623 | 53.29818 | 38812 ft | 516 kts | 95° |
| 2026-05-08 00:14 | 21.86168 | 53.37529 | 38814 ft | 516 kts | 95° |
| 2026-05-08 00:14 | 21.85710 | 53.45238 | 38810 ft | 516 kts | 95° |
| 2026-05-08 00:15 | 21.85248 | 53.52945 | 38813 ft | 516 kts | 95° |
| 2026-05-08 00:15 | 21.84786 | 53.60605 | 38816 ft | 516 kts | 95° |
| 2026-05-08 00:16 | 21.84317 | 53.68313 | 38815 ft | 516 kts | 95° |
| 2026-05-08 00:16 | 21.83846 | 53.76015 | 38813 ft | 516 kts | 95° |
| 2026-05-08 00:17 | 21.83369 | 53.83718 | 38813 ft | 515 kts | 95° |
| 2026-05-08 00:17 | 21.82890 | 53.91416 | 38814 ft | 515 kts | 95° |
| 2026-05-08 00:18 | 21.82408 | 53.99102 | 38814 ft | 515 kts | 95° |
| 2026-05-08 00:18 | 21.81923 | 54.06790 | 38818 ft | 515 kts | 95° |
| 2026-05-08 00:19 | 21.81434 | 54.14471 | 38820 ft | 514 kts | 95° |
| 2026-05-08 00:19 | 21.80945 | 54.22103 | 38819 ft | 514 kts | 95° |
| 2026-05-08 00:20 | 21.80449 | 54.29792 | 38817 ft | 514 kts | 95° |
| 2026-05-08 00:20 | 21.79950 | 54.37467 | 38815 ft | 514 kts | 95° |
| 2026-05-08 00:21 | 21.79449 | 54.45147 | 38815 ft | 514 kts | 95° |
| 2026-05-08 00:21 | 21.79971 | 54.52813 | 38816 ft | 517 kts | 78° |
| 2026-05-08 00:22 | 21.82748 | 54.59884 | 38816 ft | 520 kts | 57° |
| 2026-05-08 00:22 | 21.87263 | 54.65988 | 38819 ft | 521 kts | 50° |
| 2026-05-08 00:23 | 21.92071 | 54.71826 | 38819 ft | 521 kts | 48° |
| 2026-05-08 00:23 | 21.96888 | 54.77615 | 38819 ft | 521 kts | 49° |
| 2026-05-08 00:24 | 22.01692 | 54.83477 | 38819 ft | 521 kts | 49° |
| 2026-05-08 00:24 | 22.06462 | 54.89365 | 38811 ft | 521 kts | 49° |
| 2026-05-08 00:25 | 22.11233 | 54.95277 | 38812 ft | 521 kts | 49° |
| 2026-05-08 00:25 | 22.15994 | 55.01182 | 38811 ft | 522 kts | 49° |
| 2026-05-08 00:26 | 22.20729 | 55.07058 | 38811 ft | 522 kts | 49° |
| 2026-05-08 00:26 | 22.25490 | 55.12973 | 38812 ft | 522 kts | 49° |
| 2026-05-08 00:27 | 22.30252 | 55.18894 | 38813 ft | 522 kts | 49° |
| 2026-05-08 00:27 | 22.35010 | 55.24817 | 38811 ft | 522 kts | 49° |
| 2026-05-08 00:28 | 22.39771 | 55.30751 | 38813 ft | 522 kts | 49° |
| 2026-05-08 00:28 | 22.44350 | 55.36834 | 38814 ft | 521 kts | 57° |
| 2026-05-08 00:29 | 22.47605 | 55.43763 | 38812 ft | 520 kts | 67° |
| 2026-05-08 00:29 | 22.50384 | 55.50992 | 38816 ft | 520 kts | 69° |
| 2026-05-08 00:30 | 22.53051 | 55.58265 | 38820 ft | 520 kts | 69° |
| 2026-05-08 00:30 | 22.55715 | 55.65532 | 38820 ft | 520 kts | 69° |
| 2026-05-08 00:31 | 22.58405 | 55.72777 | 38820 ft | 520 kts | 69° |
| 2026-05-08 00:31 | 22.61120 | 55.80049 | 38823 ft | 520 kts | 69° |
| 2026-05-08 00:32 | 22.63811 | 55.87257 | 38825 ft | 520 kts | 69° |
| 2026-05-08 00:32 | 22.66511 | 55.94507 | 38826 ft | 519 kts | 69° |
| 2026-05-08 00:33 | 22.69213 | 56.01777 | 38829 ft | 519 kts | 69° |
| 2026-05-08 00:33 | 22.71907 | 56.09039 | 38833 ft | 519 kts | 69° |
| 2026-05-08 00:34 | 22.74597 | 56.16301 | 38836 ft | 519 kts | 69° |
| 2026-05-08 00:34 | 22.77286 | 56.23571 | 38842 ft | 519 kts | 69° |
| 2026-05-08 00:35 | 22.79970 | 56.30841 | 38842 ft | 520 kts | 69° |
| 2026-05-08 00:35 | 22.82547 | 56.38161 | 38845 ft | 519 kts | 74° |
| 2026-05-08 00:36 | 22.84235 | 56.45721 | 38856 ft | 519 kts | 78° |
| 2026-05-08 00:36 | 22.85712 | 56.53379 | 38860 ft | 519 kts | 79° |
| 2026-05-08 00:37 | 22.87124 | 56.61045 | 38864 ft | 519 kts | 79° |
| 2026-05-08 00:38 | 22.89267 | 56.72546 | 38878 ft | 519 kts | 79° |
| 2026-05-08 00:38 | 22.90712 | 56.80215 | 38884 ft | 518 kts | 79° |
| 2026-05-08 00:39 | 22.92154 | 56.87877 | 38891 ft | 518 kts | 79° |
| 2026-05-08 00:39 | 22.93584 | 56.95494 | 38892 ft | 518 kts | 79° |
| 2026-05-08 00:40 | 22.95019 | 57.03165 | 38900 ft | 518 kts | 79° |
| 2026-05-08 00:40 | 22.96451 | 57.10836 | 38903 ft | 518 kts | 79° |
| 2026-05-08 00:41 | 22.97876 | 57.18506 | 38908 ft | 518 kts | 79° |
| 2026-05-08 00:41 | 22.99298 | 57.26180 | 38903 ft | 518 kts | 79° |
| 2026-05-08 00:42 | 23.01189 | 57.33679 | 38908 ft | 519 kts | 71° |
| 2026-05-08 00:42 | 23.03658 | 57.41042 | 38907 ft | 519 kts | 70° |
| 2026-05-08 00:43 | 23.06237 | 57.48379 | 38902 ft | 520 kts | 69° |
| 2026-05-08 00:43 | 23.08819 | 57.55708 | 38904 ft | 520 kts | 69° |
| 2026-05-08 00:44 | 23.11380 | 57.63060 | 38894 ft | 520 kts | 70° |
| 2026-05-08 00:44 | 23.13926 | 57.70416 | 38883 ft | 520 kts | 70° |
| 2026-05-08 00:45 | 23.16446 | 57.77721 | 38862 ft | 520 kts | 70° |
| 2026-05-08 00:45 | 23.18984 | 57.85088 | 38841 ft | 520 kts | 70° |
| 2026-05-08 00:46 | 23.21516 | 57.92445 | 38826 ft | 520 kts | 70° |
| 2026-05-08 00:46 | 23.24054 | 57.99827 | 38807 ft | 520 kts | 70° |
| 2026-05-08 00:47 | 23.26663 | 58.07158 | 38796 ft | 520 kts | 68° |
| 2026-05-08 00:47 | 23.29448 | 58.14375 | 38781 ft | 520 kts | 67° |
| 2026-05-08 00:48 | 23.32280 | 58.21631 | 38757 ft | 520 kts | 67° |
| 2026-05-08 00:48 | 23.35098 | 58.28889 | 38743 ft | 521 kts | 67° |
| 2026-05-08 00:49 | 23.37889 | 58.36168 | 38733 ft | 521 kts | 67° |
| 2026-05-08 00:49 | 23.40669 | 58.43469 | 38730 ft | 521 kts | 67° |
| 2026-05-08 00:50 | 23.43405 | 58.50779 | 38726 ft | 521 kts | 68° |
| 2026-05-08 00:50 | 23.46081 | 58.58124 | 38722 ft | 521 kts | 68° |
| 2026-05-08 00:51 | 23.48737 | 58.65425 | 38718 ft | 521 kts | 68° |
| 2026-05-08 00:51 | 23.51420 | 58.72771 | 38711 ft | 521 kts | 68° |
| 2026-05-08 00:52 | 23.54100 | 58.80100 | 38714 ft | 521 kts | 68° |
| 2026-05-08 00:52 | 23.56786 | 58.87461 | 38717 ft | 521 kts | 68° |
| 2026-05-08 00:53 | 23.59468 | 58.94825 | 38718 ft | 521 kts | 68° |
| 2026-05-08 00:53 | 23.62140 | 59.02174 | 38721 ft | 522 kts | 68° |
| 2026-05-08 00:54 | 23.64799 | 59.09501 | 38724 ft | 522 kts | 68° |
| 2026-05-08 00:54 | 23.67468 | 59.16867 | 38731 ft | 522 kts | 68° |
| 2026-05-08 00:55 | 23.70132 | 59.24231 | 38739 ft | 522 kts | 68° |
| 2026-05-08 00:55 | 23.72793 | 59.31600 | 38737 ft | 522 kts | 68° |
| 2026-05-08 00:56 | 23.75454 | 59.38982 | 38741 ft | 522 kts | 68° |
| 2026-05-08 00:56 | 23.78110 | 59.46363 | 38739 ft | 522 kts | 68° |
| 2026-05-08 00:57 | 23.80145 | 59.53936 | 38740 ft | 523 kts | 78° |
| 2026-05-08 00:57 | 23.81508 | 59.61744 | 38736 ft | 523 kts | 79° |
| 2026-05-08 00:58 | 23.82740 | 59.69582 | 38737 ft | 524 kts | 80° |
| 2026-05-08 00:58 | 23.83944 | 59.77439 | 38734 ft | 524 kts | 80° |
| 2026-05-08 00:59 | 23.85161 | 59.85291 | 38735 ft | 524 kts | 80° |
| 2026-05-08 00:59 | 23.86392 | 59.93143 | 38730 ft | 525 kts | 80° |
| 2026-05-08 01:00 | 23.87623 | 60.00966 | 38738 ft | 525 kts | 80° |
| 2026-05-08 01:00 | 23.88858 | 60.08838 | 38732 ft | 525 kts | 80° |
| 2026-05-08 01:01 | 23.90087 | 60.16705 | 38734 ft | 525 kts | 80° |
| 2026-05-08 01:01 | 23.91106 | 60.23243 | 38730 ft | 525 kts | 80° |
| 2026-05-08 01:02 | 23.92533 | 60.32439 | 38732 ft | 525 kts | 80° |
| 2026-05-08 01:02 | 23.93544 | 60.38979 | 38731 ft | 525 kts | 80° |
| 2026-05-08 01:03 | 23.94759 | 60.46861 | 38731 ft | 525 kts | 80° |
| 2026-05-08 01:03 | 23.95970 | 60.54741 | 38731 ft | 526 kts | 80° |
| 2026-05-08 01:04 | 23.97177 | 60.62625 | 38733 ft | 526 kts | 80° |
| 2026-05-08 01:04 | 23.98381 | 60.70519 | 38724 ft | 526 kts | 80° |
| 2026-05-08 01:05 | 23.99582 | 60.78417 | 38726 ft | 526 kts | 80° |
| 2026-05-08 01:05 | 24.00779 | 60.86321 | 38732 ft | 527 kts | 80° |
| 2026-05-08 01:06 | 24.01964 | 60.94177 | 38726 ft | 527 kts | 80° |
| 2026-05-08 01:06 | 24.03154 | 61.02085 | 38724 ft | 527 kts | 80° |
| 2026-05-08 01:07 | 24.04338 | 61.09992 | 38726 ft | 527 kts | 80° |
| 2026-05-08 01:07 | 24.05521 | 61.17916 | 38721 ft | 527 kts | 80° |
| 2026-05-08 01:08 | 24.06700 | 61.25836 | 38725 ft | 527 kts | 80° |
| 2026-05-08 01:08 | 24.07876 | 61.33775 | 38722 ft | 528 kts | 80° |
| 2026-05-08 01:09 | 24.09050 | 61.41710 | 38722 ft | 528 kts | 80° |
| 2026-05-08 01:09 | 24.10212 | 61.49652 | 38725 ft | 528 kts | 81° |
| 2026-05-08 01:10 | 24.11365 | 61.57559 | 38724 ft | 528 kts | 81° |
| 2026-05-08 01:10 | 24.12522 | 61.65512 | 38722 ft | 529 kts | 81° |
| 2026-05-08 01:11 | 24.13677 | 61.73471 | 38723 ft | 529 kts | 81° |
| 2026-05-08 01:11 | 24.14819 | 61.81391 | 38726 ft | 529 kts | 81° |
| 2026-05-08 01:12 | 24.15907 | 61.89366 | 38727 ft | 529 kts | 81° |
| 2026-05-08 01:12 | 24.16982 | 61.97349 | 38730 ft | 530 kts | 81° |
| 2026-05-08 01:13 | 24.18058 | 62.05334 | 38729 ft | 530 kts | 81° |
| 2026-05-08 01:13 | 24.19134 | 62.13324 | 38729 ft | 530 kts | 81° |
| 2026-05-08 01:14 | 24.20205 | 62.21313 | 38727 ft | 530 kts | 81° |
| 2026-05-08 01:14 | 24.21273 | 62.29309 | 38725 ft | 531 kts | 81° |
| 2026-05-08 01:15 | 24.22338 | 62.37313 | 38731 ft | 531 kts | 81° |
| 2026-05-08 01:15 | 24.23393 | 62.45276 | 38727 ft | 531 kts | 81° |
| 2026-05-08 01:16 | 24.24451 | 62.53293 | 38734 ft | 531 kts | 81° |
| 2026-05-08 01:16 | 24.25505 | 62.61315 | 38737 ft | 532 kts | 81° |
| 2026-05-08 01:17 | 24.26556 | 62.69346 | 38736 ft | 532 kts | 81° |
| 2026-05-08 01:17 | 24.27598 | 62.77335 | 38735 ft | 532 kts | 81° |
| 2026-05-08 01:18 | 24.28641 | 62.85372 | 38738 ft | 533 kts | 81° |
| 2026-05-08 01:18 | 24.29681 | 62.93424 | 38733 ft | 533 kts | 81° |
| 2026-05-08 01:19 | 24.30717 | 63.01473 | 38733 ft | 533 kts | 81° |
| 2026-05-08 01:19 | 24.31748 | 63.09523 | 38736 ft | 533 kts | 81° |
| 2026-05-08 01:20 | 24.32775 | 63.17571 | 38734 ft | 533 kts | 81° |
| 2026-05-08 01:20 | 24.33794 | 63.25590 | 38740 ft | 534 kts | 81° |
| 2026-05-08 01:21 | 24.34817 | 63.33676 | 38738 ft | 534 kts | 81° |
| 2026-05-08 01:21 | 24.35833 | 63.41747 | 38738 ft | 534 kts | 81° |
| 2026-05-08 01:22 | 24.36840 | 63.49773 | 38740 ft | 534 kts | 81° |
| 2026-05-08 01:22 | 24.37848 | 63.57852 | 38741 ft | 534 kts | 81° |
| 2026-05-08 01:23 | 24.38852 | 63.65930 | 38741 ft | 534 kts | 81° |
| 2026-05-08 01:23 | 24.39853 | 63.74019 | 38744 ft | 535 kts | 81° |
| 2026-05-08 01:24 | 24.40849 | 63.82104 | 38746 ft | 535 kts | 81° |
| 2026-05-08 01:24 | 24.41842 | 63.90196 | 38743 ft | 535 kts | 81° |
| 2026-05-08 01:25 | 24.42825 | 63.98247 | 38747 ft | 535 kts | 81° |
| 2026-05-08 01:25 | 24.43810 | 64.06351 | 38750 ft | 535 kts | 81° |
| 2026-05-08 01:26 | 24.44790 | 64.14456 | 38749 ft | 536 kts | 81° |
| 2026-05-08 01:26 | 24.45768 | 64.22569 | 38751 ft | 536 kts | 81° |
| 2026-05-08 01:27 | 24.46742 | 64.30695 | 38753 ft | 536 kts | 81° |
| 2026-05-08 01:27 | 24.47712 | 64.38826 | 38750 ft | 536 kts | 81° |
| 2026-05-08 01:28 | 24.48672 | 64.46907 | 38752 ft | 537 kts | 81° |
| 2026-05-08 01:28 | 24.49635 | 64.55051 | 38752 ft | 537 kts | 81° |
| 2026-05-08 01:29 | 24.50593 | 64.63190 | 38755 ft | 537 kts | 81° |
| 2026-05-08 01:29 | 24.51546 | 64.71326 | 38756 ft | 537 kts | 81° |
| 2026-05-08 01:30 | 24.52489 | 64.79421 | 38761 ft | 537 kts | 81° |
| 2026-05-08 01:30 | 24.53350 | 64.87577 | 38762 ft | 538 kts | 83° |
| 2026-05-08 01:31 | 24.53955 | 64.95777 | 38762 ft | 538 kts | 84° |
| 2026-05-08 01:31 | 24.54565 | 65.03983 | 38762 ft | 539 kts | 84° |
| 2026-05-08 01:32 | 24.55192 | 65.12185 | 38760 ft | 539 kts | 84° |
| 2026-05-08 01:32 | 24.55817 | 65.20332 | 38759 ft | 539 kts | 84° |
| 2026-05-08 01:33 | 24.56445 | 65.28547 | 38758 ft | 539 kts | 84° |
| 2026-05-08 01:33 | 24.57070 | 65.36764 | 38764 ft | 539 kts | 84° |
| 2026-05-08 01:34 | 24.57690 | 65.44989 | 38764 ft | 540 kts | 84° |
| 2026-05-08 01:34 | 24.58303 | 65.53168 | 38769 ft | 540 kts | 84° |
| 2026-05-08 01:35 | 24.58915 | 65.61396 | 38766 ft | 540 kts | 84° |
| 2026-05-08 01:35 | 24.59522 | 65.69629 | 38766 ft | 540 kts | 84° |
| 2026-05-08 01:36 | 24.60126 | 65.77864 | 38764 ft | 540 kts | 84° |
| 2026-05-08 01:36 | 24.60725 | 65.86097 | 38765 ft | 541 kts | 84° |
| 2026-05-08 01:36 | 24.61018 | 65.90159 | 38639 ft | 540 kts | 84° |
| 2026-05-08 01:37 | 24.61314 | 65.94272 | 38222 ft | 540 kts | 84° |
| 2026-05-08 01:37 | 24.61607 | 65.98387 | 37515 ft | 540 kts | 84° |
| 2026-05-08 01:37 | 24.61895 | 66.02510 | 36703 ft | 541 kts | 83° |
| 2026-05-08 01:37 | 24.62181 | 66.06638 | 35814 ft | 542 kts | 83° |
| 2026-05-08 01:38 | 24.62471 | 66.10779 | 34948 ft | 544 kts | 83° |
| 2026-05-08 01:38 | 24.62767 | 66.14942 | 34110 ft | 545 kts | 82° |
| 2026-05-08 01:38 | 24.63060 | 66.19045 | 33232 ft | 547 kts | 82° |
| 2026-05-08 01:38 | 24.63360 | 66.23221 | 32324 ft | 548 kts | 82° |
| 2026-05-08 01:39 | 24.63658 | 66.27398 | 31444 ft | 549 kts | 82° |
| 2026-05-08 01:39 | 24.63954 | 66.31593 | 30581 ft | 551 kts | 83° |
| 2026-05-08 01:39 | 24.64247 | 66.35797 | 29730 ft | 552 kts | 83° |
| 2026-05-08 01:39 | 24.64537 | 66.39995 | 28818 ft | 548 kts | 83° |
| 2026-05-08 01:40 | 24.64819 | 66.44121 | 27962 ft | 532 kts | 83° |
| 2026-05-08 01:40 | 24.65096 | 66.48188 | 27217 ft | 531 kts | 83° |
| 2026-05-08 01:40 | 24.65371 | 66.52222 | 26528 ft | 525 kts | 83° |
| 2026-05-08 01:40 | 24.65641 | 66.56209 | 25873 ft | 519 kts | 83° |
| 2026-05-08 01:41 | 24.65909 | 66.60127 | 25232 ft | 506 kts | 84° |
| 2026-05-08 01:41 | 24.66160 | 66.63882 | 24393 ft | 481 kts | 84° |
| 2026-05-08 01:41 | 24.66401 | 66.67471 | 23535 ft | 460 kts | 84° |
| 2026-05-08 01:41 | 24.66631 | 66.70918 | 22557 ft | 446 kts | 84° |
| 2026-05-08 01:42 | 24.66856 | 66.74295 | 21568 ft | 440 kts | 84° |
| 2026-05-08 01:42 | 24.67071 | 66.77532 | 20604 ft | 434 kts | 84° |
| 2026-05-08 01:42 | 24.67272 | 66.80551 | 19743 ft | 428 kts | 84° |
| 2026-05-08 01:42 | 24.67486 | 66.83787 | 18831 ft | 422 kts | 84° |
| 2026-05-08 01:43 | 24.67697 | 66.86982 | 17988 ft | 414 kts | 84° |
| 2026-05-08 01:43 | 24.67900 | 66.90064 | 17142 ft | 404 kts | 84° |
| 2026-05-08 01:43 | 24.68100 | 66.93106 | 16332 ft | 394 kts | 84° |
| 2026-05-08 01:43 | 24.68296 | 66.96081 | 15549 ft | 386 kts | 84° |
| 2026-05-08 01:44 | 24.68487 | 66.99000 | 14756 ft | 378 kts | 84° |
| 2026-05-08 01:44 | 24.68674 | 67.01854 | 14011 ft | 371 kts | 84° |
| 2026-05-08 01:44 | 24.69010 | 67.04657 | 13268 ft | 370 kts | 73° |
| 2026-05-08 01:44 | 24.70058 | 67.07229 | 12586 ft | 368 kts | 59° |
| 2026-05-08 01:45 | 24.71363 | 67.09640 | 11927 ft | 366 kts | 57° |
| 2026-05-08 01:45 | 24.72698 | 67.12029 | 11277 ft | 365 kts | 57° |
| 2026-05-08 01:45 | 24.74004 | 67.14379 | 10646 ft | 363 kts | 57° |
| 2026-05-08 01:45 | 24.75306 | 67.16751 | 10031 ft | 362 kts | 57° |
| 2026-05-08 01:46 | 24.76599 | 67.19121 | 9390 ft | 360 kts | 58° |
| 2026-05-08 01:46 | 24.77882 | 67.21485 | 8722 ft | 357 kts | 58° |
| 2026-05-08 01:46 | 24.79155 | 67.23833 | 8067 ft | 355 kts | 58° |
| 2026-05-08 01:46 | 24.80413 | 67.26162 | 7437 ft | 353 kts | 58° |
| 2026-05-08 01:47 | 24.81663 | 67.28478 | 6813 ft | 350 kts | 58° |
| 2026-05-08 01:47 | 24.82901 | 67.30774 | 6207 ft | 348 kts | 58° |
| 2026-05-08 01:47 | 24.84135 | 67.33066 | 5588 ft | 346 kts | 58° |
| 2026-05-08 01:48 | 24.86403 | 67.37253 | 4659 ft | 297 kts | 55° |
| 2026-05-08 01:48 | 24.87781 | 67.38805 | 4206 ft | 276 kts | 30° |
| 2026-05-08 01:48 | 24.89530 | 67.39402 | 3749 ft | 257 kts | 360° |
| 2026-05-08 01:48 | 24.91223 | 67.39140 | 3512 ft | 235 kts | 344° |
| 2026-05-08 01:49 | 24.92758 | 67.38682 | 3383 ft | 225 kts | 341° |
| 2026-05-08 01:49 | 24.94176 | 67.37963 | 3198 ft | 223 kts | 321° |
| 2026-05-08 01:49 | 24.95112 | 67.36670 | 3168 ft | 214 kts | 292° |
| 2026-05-08 01:49 | 24.95403 | 67.35107 | 3212 ft | 202 kts | 275° |
| 2026-05-08 01:50 | 24.95310 | 67.33616 | 3053 ft | 193 kts | 256° |
| 2026-05-08 01:50 | 24.94879 | 67.32204 | 2694 ft | 195 kts | 251° |
| 2026-05-08 01:50 | 24.94598 | 67.31262 | 2493 ft | 194 kts | 253° |
| 2026-05-08 01:50 | 24.94271 | 67.29839 | 2265 ft | 189 kts | 256° |
| 2026-05-08 01:51 | 24.93934 | 67.28456 | 2008 ft | 185 kts | 255° |
| 2026-05-08 01:51 | 24.93591 | 67.27125 | 1772 ft | 176 kts | 255° |
| 2026-05-08 01:51 | 24.93269 | 67.25849 | 1556 ft | 169 kts | 254° |
| 2026-05-08 01:51 | 24.92964 | 67.24643 | 1335 ft | 157 kts | 254° |
| 2026-05-08 01:52 | 24.92682 | 67.23519 | 1146 ft | 152 kts | 254° |
| 2026-05-08 01:52 | 24.92399 | 67.22398 | 959 ft | 152 kts | 254° |
| 2026-05-08 01:52 | 24.92116 | 67.21269 | 759 ft | 152 kts | 254° |
| 2026-05-08 01:52 | 24.91832 | 67.20141 | 574 ft | 153 kts | 254° |
| 2026-05-08 01:53 | 24.91550 | 67.19012 | 361 ft | 153 kts | 254° |
| 2026-05-08 01:53 | 24.91263 | 67.17880 | 176 ft | 154 kts | 253° |
| 2026-05-08 01:53 | 24.90979 | 67.16770 | 119 ft | 142 kts | 253° |
| 2026-05-08 01:53 | 24.90748 | 67.15847 | 111 ft | 99 kts | 256° |
| 2026-05-08 01:54 | 24.90629 | 67.15378 | 112 ft | 37 kts | 254° |
| 2026-05-08 01:54 | 24.90562 | 67.15115 | 111 ft | 35 kts | 254° |
| 2026-05-08 01:54 | 24.90495 | 67.14863 | 110 ft | 34 kts | 248° |
| 2026-05-08 01:54 | 24.90347 | 67.14772 | 110 ft | 22 kts | 166° |
| 2026-05-08 01:55 | 24.90307 | 67.14784 | 110 ft | 0 kts | 160° |
| 2026-05-08 01:55 | 24.90272 | 67.14811 | 111 ft | 8 kts | 133° |
| 2026-05-08 01:56 | 24.90245 | 67.14875 | 111 ft | 10 kts | 107° |
| 2026-05-08 01:56 | 24.90225 | 67.14958 | 110 ft | 12 kts | 105° |
| 2026-05-08 01:56 | 24.90200 | 67.15055 | 109 ft | 14 kts | 105° |
| 2026-05-08 01:56 | 24.90174 | 67.15173 | 109 ft | 22 kts | 104° |
| 2026-05-08 01:57 | 24.90143 | 67.15359 | 107 ft | 26 kts | 85° |
| 2026-05-08 01:57 | 24.90188 | 67.15557 | 108 ft | 27 kts | 74° |
| 2026-05-08 01:57 | 24.90242 | 67.15764 | 108 ft | 29 kts | 74° |
| 2026-05-08 01:57 | 24.90297 | 67.15982 | 108 ft | 30 kts | 75° |
| 2026-05-08 01:58 | 24.90353 | 67.16210 | 108 ft | 32 kts | 74° |
| 2026-05-08 01:58 | 24.90412 | 67.16447 | 108 ft | 33 kts | 74° |
| 2026-05-08 01:58 | 24.90475 | 67.16691 | 108 ft | 34 kts | 74° |
| 2026-05-08 01:58 | 24.90524 | 67.16887 | 108 ft | 11 kts | 75° |
| 2026-05-08 01:59 | 24.90546 | 67.16977 | 108 ft | 13 kts | 80° |
| 2026-05-08 01:59 | 24.90490 | 67.17037 | 108 ft | 13 kts | 171° |
| 2026-05-08 01:59 | 24.90442 | 67.17027 | 107 ft | 8 kts | 202° |
| 2026-05-08 01:59 | 24.90385 | 67.16999 | 107 ft | 10 kts | 204° |
| 2026-05-08 02:00 | 24.90347 | 67.16980 | 107 ft | 6 kts | 206° |
| 2026-05-08 02:00 | 24.90331 | 67.16972 | 107 ft | 0 kts | 204° |